首页
METAR-TAF:

METAR-TAF

机场 :

兹瓦尔特诺茨国际机场

葉里溫, 亚美尼亚

纬度: 40-08-50N, 经度: 044-23-45E, 海拔: 865米

当前天气观测

该预报发布于43分钟前的14:00 UTC
风速1节,风向多变
温度 20°C
湿度 14%
气压 1016 hPa
能见度10公里或以上

METAR: UDYZ 151400Z VRB01KT 9999 NSC 20/M08 Q1016 R09/010070 NOSIG

时间: 18:43 (14:43 UTC)

预报

该预报发布于3小时和41分钟前的11:02 UTC
预报有效从15日的 12点(UTC)到 16日的 12点(UTC)
风速6节,风向东南
能见度10公里或以上
少量云层高于4000英尺
短暂存在
从 15日的 12点(UTC)到 15日的 21点(UTC)
风速16节,风向东北,有时为26节阵风

TAF: UDYZ 151102Z 1512/1612 13006KT 9999 FEW040 TEMPO 1512/1521 04016G26KT

超过4000个机场的气象观测和天气预报(METAR&TAF报告)。

可查询的气象台以黄色和红色小点在地图上表示。

将鼠标移到小点上方,可查看气象台名称。

然后点击查看天气观测和预报。

如需切换地图:点击带黑十字的绿色按钮放大地图;点击带横线的绿色按钮缩小地图;或者点击绿色箭头查看邻近地区的地图。


METAR-TAF: